createdAt,value
2018-01-02T00:00:50.772Z,67.73
2018-01-02T00:03:18.301Z,67.39
2018-01-02T00:05:45.815Z,66.81
2018-01-02T00:08:14.266Z,67.07
2018-01-02T00:10:41.761Z,67.10
2018-01-02T00:13:09.298Z,66.82
2018-01-02T00:15:36.753Z,67.33
2018-01-02T00:18:04.277Z,67.61
2018-01-02T00:20:31.815Z,67.75
2018-01-02T00:22:59.308Z,68.32
2018-01-02T00:25:26.816Z,69.80
2018-01-02T00:27:54.302Z,71.02
2018-01-02T00:30:21.776Z,71.26
2018-01-02T00:32:49.225Z,70.83
2018-01-02T00:35:16.687Z,70.96
2018-01-02T00:37:44.221Z,71.00
2018-01-02T00:40:11.656Z,70.68
2018-01-02T00:42:39.097Z,70.49
2018-01-02T00:45:06.549Z,70.14
2018-01-02T00:47:34.046Z,70.10
2018-01-02T00:50:01.534Z,70.32
2018-01-02T00:52:29.007Z,70.65
2018-01-02T00:54:56.495Z,70.06
2018-01-02T00:57:23.948Z,70.18
2018-01-02T00:59:51.446Z,70.11
2018-01-02T01:02:18.912Z,69.85
2018-01-02T01:04:46.372Z,70.49
2018-01-02T01:07:13.845Z,70.70
2018-01-02T01:09:41.296Z,70.52
2018-01-02T01:12:08.770Z,70.41
2018-01-02T01:14:36.217Z,71.15
2018-01-02T01:17:03.885Z,72.36
2018-01-02T01:19:31.351Z,72.60
2018-01-02T01:21:58.791Z,73.14
2018-01-02T01:24:26.254Z,73.94
2018-01-02T01:26:53.700Z,74.23
2018-01-02T01:29:21.167Z,74.81
2018-01-02T01:31:48.646Z,75.17
2018-01-02T01:34:16.107Z,75.76
2018-01-02T01:36:43.557Z,76.23
2018-01-02T01:39:10.998Z,77.65
2018-01-02T01:41:38.450Z,77.86
2018-01-02T01:44:05.917Z,77.57
2018-01-02T01:46:33.361Z,77.95
2018-01-02T01:49:01.229Z,78.34
2018-01-02T01:51:28.685Z,79.45
2018-01-02T01:53:56.146Z,78.89
2018-01-02T01:56:23.622Z,78.90
2018-01-02T01:58:51.085Z,80.07
2018-01-02T02:01:18.566Z,80.31
2018-01-02T02:03:46.023Z,80.23
2018-01-02T02:06:13.480Z,80.80
2018-01-02T02:08:40.930Z,80.88
2018-01-02T02:11:08.395Z,80.45
2018-01-02T02:13:35.840Z,80.98
2018-01-02T02:16:03.313Z,81.70
2018-01-02T02:18:30.789Z,81.55
2018-01-02T02:20:58.236Z,81.08
2018-01-02T02:23:25.693Z,81.74
2018-01-02T02:25:53.155Z,81.69
2018-01-02T02:28:20.619Z,81.11
2018-01-02T02:30:48.085Z,81.64
2018-01-02T02:33:15.529Z,80.87
2018-01-02T02:35:43.003Z,81.11
2018-01-02T02:38:10.460Z,81.12
2018-01-02T02:40:49.712Z,80.03
2018-01-02T02:43:17.182Z,80.53
2018-01-02T02:45:44.663Z,78.97
2018-01-02T02:48:12.124Z,78.31
2018-01-02T02:50:39.566Z,78.36
2018-01-02T02:53:07.027Z,78.42
2018-01-02T02:55:34.482Z,77.64
2018-01-02T02:58:02.098Z,78.07
2018-01-02T03:00:29.548Z,77.74
2018-01-02T03:02:57.058Z,78.21
2018-01-02T03:05:24.514Z,78.50
2018-01-02T03:07:51.987Z,78.29
2018-01-02T03:10:19.425Z,77.53
2018-01-02T03:12:46.886Z,77.60
2018-01-02T03:15:14.336Z,77.09
2018-01-02T03:17:41.800Z,77.09
2018-01-02T03:20:09.272Z,77.45
2018-01-02T03:22:36.731Z,77.48
2018-01-02T03:25:04.188Z,77.79
2018-01-02T03:27:31.655Z,77.45
2018-01-02T03:29:59.105Z,77.40
2018-01-02T03:32:26.543Z,77.77
2018-01-02T03:34:53.996Z,77.51
2018-01-02T03:37:21.445Z,77.83
2018-01-02T03:39:48.910Z,78.31
2018-01-02T03:42:16.403Z,78.67
2018-01-02T03:44:43.865Z,78.17
2018-01-02T03:47:11.357Z,78.07
2018-01-02T03:49:38.824Z,78.32
2018-01-02T03:52:06.281Z,79.31
2018-01-02T03:54:33.742Z,78.91
2018-01-02T03:57:01.196Z,78.06
2018-01-02T03:59:31.025Z,78.51
2018-01-02T04:01:58.490Z,78.41
2018-01-02T04:04:25.940Z,78.46
2018-01-02T04:06:53.405Z,77.73
2018-01-02T04:09:20.872Z,78.01
2018-01-02T04:11:48.338Z,78.19
2018-01-02T04:14:15.776Z,77.72
2018-01-02T04:16:43.249Z,78.05
2018-01-02T04:19:10.692Z,78.14
2018-01-02T04:21:39.076Z,78.04
2018-01-02T04:24:06.529Z,78.19
2018-01-02T04:26:33.966Z,78.22
2018-01-02T04:29:01.439Z,78.37
2018-01-02T04:31:28.897Z,78.50
2018-01-02T04:33:56.352Z,78.39
2018-01-02T04:36:23.814Z,78.30
2018-01-02T04:38:51.284Z,78.38
2018-01-02T04:41:18.745Z,78.31
2018-01-02T04:43:46.211Z,78.04
2018-01-02T04:46:13.681Z,78.03
2018-01-02T04:48:41.127Z,77.92
2018-01-02T04:51:08.596Z,77.71
2018-01-02T04:53:36.043Z,77.08
2018-01-02T04:56:03.503Z,77.18
2018-01-02T04:58:30.942Z,77.18
2018-01-02T05:00:58.412Z,76.97
2018-01-02T05:03:25.857Z,76.73
2018-01-02T05:05:53.325Z,76.83
2018-01-02T05:08:20.795Z,77.10
2018-01-02T05:10:48.249Z,76.70
2018-01-02T05:13:15.715Z,76.81
2018-01-02T05:15:43.159Z,76.46
2018-01-02T05:18:10.625Z,76.44
2018-01-02T05:20:38.072Z,76.69
2018-01-02T05:23:05.569Z,76.45
2018-01-02T05:25:33.030Z,75.96
2018-01-02T05:28:00.484Z,76.22
2018-01-02T05:30:27.942Z,76.01
2018-01-02T05:32:55.428Z,76.43
2018-01-02T05:35:22.898Z,75.73
2018-01-02T05:37:50.356Z,75.20
2018-01-02T05:40:17.842Z,76.11
2018-01-02T05:42:45.304Z,77.60
2018-01-02T05:45:12.786Z,80.21
2018-01-02T05:47:40.238Z,81.07
2018-01-02T05:50:07.688Z,81.76
2018-01-02T05:52:35.200Z,81.52
2018-01-02T05:55:02.612Z,82.33
2018-01-02T05:57:30.067Z,81.63
2018-01-02T05:59:57.550Z,81.71
2018-01-02T06:02:25.018Z,80.75
2018-01-02T06:04:52.477Z,81.20
2018-01-02T06:07:19.937Z,81.05
2018-01-02T06:09:47.390Z,80.47
2018-01-02T06:12:14.845Z,80.08
2018-01-02T06:14:42.305Z,80.36
2018-01-02T06:17:09.831Z,80.33
2018-01-02T06:19:37.296Z,81.00
2018-01-02T06:22:04.855Z,80.59
2018-01-02T06:24:32.305Z,80.21
2018-01-02T06:26:59.778Z,80.62
2018-01-02T06:29:27.246Z,80.98
2018-01-02T06:31:54.695Z,80.48
2018-01-02T06:34:22.155Z,80.31
2018-01-02T06:36:51.812Z,80.73
2018-01-02T06:39:19.305Z,80.52
2018-01-02T06:41:46.779Z,81.27
2018-01-02T06:44:14.247Z,80.87
2018-01-02T06:46:41.695Z,81.28
2018-01-02T06:49:09.163Z,81.36
2018-01-02T06:51:36.633Z,82.01
2018-01-02T06:54:04.098Z,81.84
2018-01-02T06:56:32.356Z,82.28
2018-01-02T06:58:59.820Z,81.96
2018-01-02T07:01:27.301Z,81.83
2018-01-02T07:03:54.754Z,82.16
2018-01-02T07:06:22.273Z,82.46
2018-01-02T07:08:49.725Z,82.35
2018-01-02T07:11:17.214Z,83.20
2018-01-02T07:13:44.669Z,83.83
2018-01-02T07:16:12.171Z,84.04
2018-01-02T07:18:39.634Z,84.28
2018-01-02T07:21:07.097Z,84.59
2018-01-02T07:23:34.561Z,84.36
2018-01-02T07:26:02.037Z,84.27
2018-01-02T07:28:29.506Z,84.04
2018-01-02T07:30:56.953Z,84.35
2018-01-02T07:33:24.418Z,83.83
2018-01-02T07:35:51.871Z,83.59
2018-01-02T07:38:19.329Z,83.76
2018-01-02T07:40:46.789Z,83.54
2018-01-02T07:43:14.242Z,83.60
2018-01-02T07:45:41.716Z,83.58
2018-01-02T07:48:09.203Z,83.61
2018-01-02T07:50:36.651Z,83.71
2018-01-02T07:53:04.109Z,84.16
2018-01-02T07:55:31.688Z,84.07
2018-01-02T07:57:59.148Z,83.79
2018-01-02T08:00:26.609Z,83.78
2018-01-02T08:02:54.048Z,83.73
2018-01-02T08:05:21.531Z,83.67
2018-01-02T08:07:49.020Z,83.50
2018-01-02T08:10:16.503Z,83.12
2018-01-02T08:12:44.062Z,83.16
2018-01-02T08:15:11.566Z,83.01
2018-01-02T08:17:39.010Z,83.15
2018-01-02T08:20:06.490Z,83.04
2018-01-02T08:22:33.977Z,83.14
2018-01-02T08:25:01.438Z,82.67
2018-01-02T08:27:28.982Z,82.96
2018-01-02T08:29:56.437Z,82.59
2018-01-02T08:32:23.949Z,82.81
2018-01-02T08:34:51.463Z,83.03
2018-01-02T08:37:18.921Z,83.26
2018-01-02T08:39:46.382Z,83.49
2018-01-02T08:42:13.836Z,84.01
2018-01-02T08:44:41.303Z,83.96
2018-01-02T08:47:08.750Z,84.28
2018-01-02T08:49:36.289Z,83.87
2018-01-02T08:52:04.380Z,83.71
2018-01-02T08:54:31.822Z,83.96
2018-01-02T08:56:59.288Z,84.64
2018-01-02T08:59:26.906Z,84.69
2018-01-02T09:01:54.389Z,84.98
2018-01-02T09:04:21.859Z,85.71
2018-01-02T09:06:49.312Z,85.87
2018-01-02T09:09:16.778Z,86.71
2018-01-02T09:11:44.245Z,86.33
2018-01-02T09:14:11.701Z,87.51
2018-01-02T09:16:39.161Z,87.76
2018-01-02T09:19:06.613Z,87.81
2018-01-02T09:21:34.063Z,88.00
2018-01-02T09:24:01.528Z,87.60
2018-01-02T09:26:28.986Z,87.91
2018-01-02T09:28:56.439Z,87.39
2018-01-02T09:31:24.073Z,87.80
2018-01-02T09:33:51.589Z,87.50
2018-01-02T09:36:19.035Z,87.55
2018-01-02T09:38:46.482Z,87.70
2018-01-02T09:41:13.959Z,87.39
2018-01-02T09:43:41.408Z,87.10
2018-01-02T09:46:08.864Z,86.48
2018-01-02T09:48:36.318Z,86.44
2018-01-02T09:51:03.781Z,86.23
2018-01-02T09:53:31.221Z,86.64
2018-01-02T09:55:58.743Z,86.16
2018-01-02T09:58:26.190Z,86.08
2018-01-02T10:00:53.657Z,86.29
2018-01-02T10:03:21.123Z,85.96
2018-01-02T10:05:48.581Z,86.46
2018-01-02T10:08:16.036Z,85.88
2018-01-02T10:10:43.509Z,85.93
2018-01-02T10:13:10.963Z,85.52
2018-01-02T10:15:38.411Z,85.88
2018-01-02T10:18:05.862Z,85.54
2018-01-02T10:20:33.364Z,85.69
2018-01-02T10:23:00.844Z,85.63
2018-01-02T10:25:28.290Z,85.56
2018-01-02T10:27:55.736Z,85.63
2018-01-02T10:30:23.204Z,85.38
2018-01-02T10:32:50.660Z,85.29
2018-01-02T10:35:18.152Z,84.93
2018-01-02T10:37:45.769Z,84.66
2018-01-02T10:40:13.228Z,85.07
2018-01-02T10:42:40.687Z,84.73
2018-01-02T10:45:08.155Z,84.68
2018-01-02T10:47:35.598Z,84.39
2018-01-02T10:50:03.069Z,84.15
2018-01-02T10:52:30.523Z,84.65
2018-01-02T10:54:57.993Z,85.72
2018-01-02T10:57:25.451Z,85.45
2018-01-02T10:59:52.909Z,86.21
2018-01-02T11:02:20.364Z,86.59
2018-01-02T11:04:47.815Z,87.57
2018-01-02T11:07:15.277Z,88.29
2018-01-02T11:09:42.725Z,88.88
2018-01-02T11:12:14.973Z,88.88
2018-01-02T11:14:42.428Z,89.25
2018-01-02T11:17:09.895Z,89.73
2018-01-02T11:19:37.343Z,89.65
2018-01-02T11:22:04.801Z,90.36
2018-01-02T11:24:32.373Z,90.21
2018-01-02T11:26:59.937Z,90.28
2018-01-02T11:29:27.383Z,90.54
2018-01-02T11:31:54.848Z,90.64
2018-01-02T11:34:22.305Z,89.58
2018-01-02T11:36:49.758Z,89.83
2018-01-02T11:39:17.218Z,89.54
2018-01-02T11:41:44.664Z,89.28
2018-01-02T11:44:12.213Z,89.30
2018-01-02T11:46:39.694Z,89.12
2018-01-02T11:49:07.157Z,89.28
2018-01-02T11:51:34.593Z,89.29
2018-01-02T11:54:02.069Z,88.87
2018-01-02T11:56:29.510Z,88.52
2018-01-02T11:58:56.992Z,88.53
2018-01-02T12:01:24.443Z,88.34
2018-01-02T12:03:51.891Z,88.09
2018-01-02T12:06:19.334Z,87.26
2018-01-02T12:08:46.799Z,87.41
2018-01-02T12:11:15.046Z,86.18
2018-01-02T12:13:42.493Z,85.95
2018-01-02T12:16:09.966Z,85.97
2018-01-02T12:18:37.430Z,85.80
2018-01-02T12:21:04.887Z,85.76
2018-01-02T12:23:32.336Z,85.12
2018-01-02T12:25:59.772Z,85.44
2018-01-02T12:28:27.229Z,85.60
2018-01-02T12:30:54.671Z,85.24
2018-01-02T12:33:22.142Z,84.89
2018-01-02T12:35:49.594Z,84.96
2018-01-02T12:38:17.048Z,85.69
2018-01-02T12:40:44.510Z,85.38
2018-01-02T12:43:11.981Z,84.55
2018-01-02T12:45:39.443Z,84.85
2018-01-02T12:48:06.905Z,84.66
2018-01-02T12:50:34.373Z,84.58
2018-01-02T12:53:01.815Z,83.89
2018-01-02T12:55:29.278Z,83.26
2018-01-02T12:57:56.717Z,83.00
2018-01-02T13:00:24.189Z,83.74
2018-01-02T13:02:51.650Z,83.20
2018-01-02T13:05:19.150Z,82.85
2018-01-02T13:07:46.606Z,82.95
2018-01-02T13:10:14.064Z,82.67
2018-01-02T13:12:41.522Z,82.76
2018-01-02T13:15:09.028Z,82.47
2018-01-02T13:17:36.511Z,82.29
2018-01-02T13:20:03.962Z,82.76
2018-01-02T13:22:31.427Z,82.96
2018-01-02T13:24:58.891Z,83.01
2018-01-02T13:27:26.349Z,82.91
2018-01-02T13:29:53.800Z,82.88
2018-01-02T13:32:21.260Z,83.18
2018-01-02T13:34:48.707Z,82.72
2018-01-02T13:37:16.179Z,82.79
2018-01-02T13:39:43.648Z,82.03
2018-01-02T13:42:11.121Z,82.11
2018-01-02T13:44:38.568Z,82.25
2018-01-02T13:47:06.015Z,81.42
2018-01-02T13:49:33.484Z,81.73
2018-01-02T13:52:00.953Z,82.23
2018-01-02T13:54:28.436Z,81.53
2018-01-02T13:56:55.891Z,81.56
2018-01-02T13:59:23.341Z,81.39
2018-01-02T14:01:50.784Z,81.36
2018-01-02T14:04:18.236Z,81.41
2018-01-02T14:06:45.682Z,81.65
2018-01-02T14:09:13.207Z,81.49
2018-01-02T14:11:40.682Z,81.28
2018-01-02T14:14:08.153Z,81.15
2018-01-02T14:16:35.630Z,81.20
2018-01-02T14:19:03.073Z,80.82
2018-01-02T14:21:30.616Z,81.59
2018-01-02T14:23:58.102Z,81.38
2018-01-02T14:26:25.714Z,81.06
2018-01-02T14:28:53.194Z,80.95
2018-01-02T14:31:20.646Z,81.25
2018-01-02T14:33:48.102Z,80.49
2018-01-02T14:36:15.568Z,80.97
2018-01-02T14:38:43.043Z,80.97
2018-01-02T14:41:10.517Z,80.50
2018-01-02T14:43:38.019Z,80.93
2018-01-02T14:46:05.465Z,79.87
2018-01-02T14:48:32.995Z,79.89
2018-01-02T14:51:00.453Z,80.17
2018-01-02T14:53:27.924Z,80.32
2018-01-02T14:55:55.373Z,80.98
2018-01-02T14:58:22.825Z,80.08
2018-01-02T15:00:50.294Z,80.18
2018-01-02T15:03:17.748Z,80.16
2018-01-02T15:05:45.208Z,80.14
2018-01-02T15:08:12.678Z,79.94
2018-01-02T15:10:40.123Z,79.91
2018-01-02T15:13:07.689Z,80.32
2018-01-02T15:15:35.132Z,80.57
2018-01-02T15:18:02.573Z,80.05
2018-01-02T15:20:30.076Z,79.85
2018-01-02T15:22:57.536Z,80.27
2018-01-02T15:25:25.035Z,80.24
2018-01-02T15:27:52.489Z,79.85
2018-01-02T15:30:19.945Z,80.06
2018-01-02T15:32:47.402Z,80.62
2018-01-02T15:35:14.867Z,80.57
2018-01-02T15:37:42.342Z,79.91
2018-01-02T15:40:09.834Z,80.23
2018-01-02T15:42:37.336Z,80.75
2018-01-02T15:45:04.787Z,80.63
2018-01-02T15:47:33.120Z,80.62
2018-01-02T15:50:00.578Z,80.29
2018-01-02T15:52:28.038Z,80.37
2018-01-02T15:54:55.509Z,80.72
2018-01-02T15:57:22.981Z,81.04
2018-01-02T15:59:50.450Z,80.99
2018-01-02T16:02:17.968Z,80.98
2018-01-02T16:04:45.424Z,80.57
2018-01-02T16:07:12.893Z,80.02
2018-01-02T16:09:40.344Z,80.87
2018-01-02T16:12:07.819Z,80.99
2018-01-02T16:14:35.273Z,80.61
2018-01-02T16:17:02.720Z,80.72
2018-01-02T16:19:30.198Z,81.16
2018-01-02T16:21:57.665Z,81.15
2018-01-02T16:24:25.146Z,81.09
2018-01-02T16:26:52.656Z,81.10
2018-01-02T16:29:20.122Z,81.38
2018-01-02T16:31:47.611Z,81.49
2018-01-02T16:34:15.074Z,80.73
2018-01-02T16:36:42.591Z,81.10
2018-01-02T16:39:10.051Z,80.46
2018-01-02T16:41:37.551Z,80.98
2018-01-02T16:44:05.030Z,80.88
2018-01-02T16:46:32.502Z,81.08
2018-01-02T16:49:00.069Z,80.69
2018-01-02T16:51:27.631Z,80.53
2018-01-02T16:53:55.217Z,80.51
2018-01-02T16:56:22.732Z,81.08
2018-01-02T16:58:50.199Z,80.80
2018-01-02T17:01:17.667Z,80.63
2018-01-02T17:03:45.165Z,80.44
2018-01-02T17:06:12.625Z,80.70
2018-01-02T17:08:40.086Z,80.96
2018-01-02T17:11:07.566Z,80.95
2018-01-02T17:13:35.064Z,80.75
2018-01-02T17:16:02.557Z,81.44
2018-01-02T17:18:30.118Z,81.61
2018-01-02T17:20:57.647Z,81.01
2018-01-02T17:23:25.235Z,81.44
2018-01-02T17:25:52.763Z,81.74
2018-01-02T17:28:20.234Z,80.75
2018-01-02T17:30:47.737Z,80.43
2018-01-02T17:33:15.273Z,80.75
2018-01-02T17:35:42.758Z,80.89
2018-01-02T17:38:10.298Z,80.68
2018-01-02T17:40:38.595Z,80.99
2018-01-02T17:43:06.109Z,80.58
2018-01-02T17:45:33.631Z,80.93
2018-01-02T17:48:01.212Z,81.00
2018-01-02T17:50:28.785Z,80.92
2018-01-02T17:52:56.332Z,80.79
2018-01-02T17:55:23.933Z,80.69
2018-01-02T17:57:51.439Z,80.58
2018-01-02T18:00:18.940Z,80.34
2018-01-02T18:02:46.443Z,80.76
2018-01-02T18:05:13.961Z,80.42
2018-01-02T18:07:41.458Z,80.92
2018-01-02T18:10:09.021Z,80.70
2018-01-02T18:12:36.601Z,80.35
2018-01-02T18:15:04.129Z,80.36
2018-01-02T18:17:31.638Z,80.54
2018-01-02T18:19:59.145Z,80.35
2018-01-02T18:22:26.656Z,80.31
2018-01-02T18:24:54.155Z,80.21
2018-01-02T18:27:21.639Z,80.55
2018-01-02T18:29:49.146Z,80.44
2018-01-02T18:32:16.660Z,80.83
2018-01-02T18:34:44.150Z,80.77
2018-01-02T18:37:11.653Z,81.36
2018-01-02T18:39:39.203Z,81.13
2018-01-02T18:42:06.711Z,80.92
2018-01-02T18:44:34.222Z,81.16
2018-01-02T18:47:01.749Z,81.02
2018-01-02T18:49:29.309Z,81.31
2018-01-02T18:51:56.898Z,81.35
2018-01-02T18:54:25.344Z,81.41
2018-01-02T18:56:52.846Z,81.62
2018-01-02T18:59:20.342Z,81.86
2018-01-02T19:01:47.838Z,81.92
2018-01-02T19:04:15.302Z,81.93
2018-01-02T19:06:42.811Z,82.67
2018-01-02T19:09:10.302Z,82.63
2018-01-02T19:11:37.806Z,82.69
2018-01-02T19:14:05.305Z,82.68
2018-01-02T19:16:32.871Z,83.19
2018-01-02T19:19:00.386Z,83.21
2018-01-02T19:21:27.911Z,82.96
2018-01-02T19:23:55.487Z,82.76
2018-01-02T19:26:23.036Z,82.67
2018-01-02T19:28:50.539Z,82.93
2018-01-02T19:31:18.057Z,82.63
2018-01-02T19:33:45.548Z,82.60
2018-01-02T19:36:13.058Z,82.34
2018-01-02T19:38:40.559Z,81.43
2018-01-02T19:41:08.071Z,81.30
2018-01-02T19:43:35.568Z,80.69
2018-01-02T19:46:03.092Z,80.79
2018-01-02T19:48:30.607Z,80.52
2018-01-02T19:50:58.130Z,80.32
2018-01-02T19:53:25.670Z,80.66
2018-01-02T19:55:53.161Z,81.13
2018-01-02T19:58:20.656Z,81.15
2018-01-02T20:00:48.154Z,81.67
2018-01-02T20:03:15.667Z,81.75
2018-01-02T20:05:43.173Z,82.13
2018-01-02T20:08:10.694Z,82.03
2018-01-02T20:10:38.195Z,82.40
2018-01-02T20:13:05.712Z,82.37
2018-01-02T20:15:33.261Z,81.90
2018-01-02T20:18:00.793Z,81.79
2018-01-02T20:20:28.299Z,81.02
2018-01-02T20:22:55.984Z,80.98
2018-01-02T20:25:23.499Z,80.90
2018-01-02T20:27:51.008Z,80.24
2018-01-02T20:30:18.517Z,80.00
2018-01-02T20:32:46.039Z,79.97
2018-01-02T20:35:13.550Z,80.17
2018-01-02T20:37:41.084Z,80.66
2018-01-02T20:40:08.576Z,80.27
2018-01-02T20:42:36.106Z,79.93
2018-01-02T20:45:03.599Z,79.84
2018-01-02T20:47:31.101Z,80.02
2018-01-02T20:49:58.654Z,80.17
2018-01-02T20:52:26.156Z,80.54
2018-01-02T20:54:53.673Z,80.59
2018-01-02T20:57:21.207Z,80.80
2018-01-02T20:59:48.720Z,81.28
2018-01-02T21:02:16.306Z,81.90
2018-01-02T21:04:43.816Z,81.82
2018-01-02T21:07:11.328Z,81.59
2018-01-02T21:09:38.846Z,80.99
2018-01-02T21:12:06.506Z,80.85
2018-01-02T21:14:34.022Z,81.02
2018-01-02T21:17:01.580Z,81.25
2018-01-02T21:19:29.085Z,81.38
2018-01-02T21:21:56.784Z,81.43
2018-01-02T21:24:24.289Z,81.76
2018-01-02T21:26:55.481Z,81.72
2018-01-02T21:29:23.046Z,81.69
2018-01-02T21:31:50.554Z,81.62
2018-01-02T21:34:18.632Z,81.67
2018-01-02T21:36:46.145Z,81.95
2018-01-02T21:39:13.704Z,81.84
2018-01-02T21:41:41.202Z,81.84
2018-01-02T21:44:08.718Z,81.74
2018-01-02T21:46:36.212Z,81.58
2018-01-02T21:49:03.738Z,81.40
2018-01-02T21:51:31.348Z,81.48
2018-01-02T21:53:58.875Z,81.43
2018-01-02T21:56:26.377Z,81.16
2018-01-02T21:58:53.924Z,81.30
2018-01-02T22:01:21.436Z,81.52
2018-01-02T22:03:48.963Z,81.58
2018-01-02T22:06:16.468Z,81.39
2018-01-02T22:08:43.966Z,81.27
2018-01-02T22:11:11.617Z,81.10
2018-01-02T22:13:39.161Z,80.50
2018-01-02T22:16:06.670Z,80.29
2018-01-02T22:18:34.206Z,79.95
2018-01-02T22:21:01.722Z,79.95
2018-01-02T22:23:29.233Z,79.82
2018-01-02T22:25:56.852Z,79.92
2018-01-02T22:28:24.359Z,80.11
2018-01-02T22:30:51.865Z,80.06
2018-01-02T22:33:19.373Z,80.24
2018-01-02T22:35:46.897Z,80.49
2018-01-02T22:38:14.433Z,80.78
2018-01-02T22:40:41.972Z,81.03
2018-01-02T22:43:09.595Z,81.13
2018-01-02T22:45:37.148Z,81.47
2018-01-02T22:48:04.659Z,81.55
2018-01-02T22:50:32.176Z,81.69
2018-01-02T22:52:59.705Z,81.84
2018-01-02T22:55:27.244Z,82.10
2018-01-02T22:57:54.747Z,82.14
2018-01-02T23:00:22.264Z,82.67
2018-01-02T23:02:49.767Z,82.80
2018-01-02T23:05:17.277Z,83.01
2018-01-02T23:07:44.787Z,83.90
2018-01-02T23:10:12.297Z,83.81
2018-01-02T23:12:39.816Z,84.68
2018-01-02T23:15:07.349Z,84.56
2018-01-02T23:17:34.896Z,84.19
2018-01-02T23:20:02.430Z,84.09
2018-01-02T23:22:29.961Z,84.09
2018-01-02T23:24:57.483Z,85.11
2018-01-02T23:27:25.000Z,85.36
2018-01-02T23:29:52.495Z,86.33
2018-01-02T23:32:20.023Z,86.92
2018-01-02T23:34:48.228Z,87.19
2018-01-02T23:37:15.718Z,86.98
2018-01-02T23:39:43.226Z,87.30
2018-01-02T23:42:10.736Z,87.78
2018-01-02T23:44:38.235Z,88.36
2018-01-02T23:47:05.722Z,88.40
2018-01-02T23:49:33.244Z,87.90
2018-01-02T23:52:00.752Z,87.51
2018-01-02T23:54:28.261Z,87.06
2018-01-02T23:56:55.752Z,86.35
2018-01-02T23:59:23.258Z,86.11
